sensor_id;sensor_type;location;lat;lon;timestamp;pressure;altitude;pressure_sealevel;temperature;humidity
21359;BME280;13506;50.852;20.632;2023-05-23T00:01:19;98163.13;;;10.64;76.72
21359;BME280;13506;50.852;20.632;2023-05-23T00:03:50;98163.13;;;10.75;76.78
21359;BME280;13506;50.852;20.632;2023-05-23T00:06:19;98161.47;;;10.74;76.18
21359;BME280;13506;50.852;20.632;2023-05-23T00:08:47;98151.00;;;10.74;76.43
21359;BME280;13506;50.852;20.632;2023-05-23T00:11:16;98153.22;;;10.68;75.92
21359;BME280;13506;50.852;20.632;2023-05-23T00:13:46;98143.94;;;10.64;76.28
21359;BME280;13506;50.852;20.632;2023-05-23T00:16:14;98138.59;;;10.65;77.37
21359;BME280;13506;50.852;20.632;2023-05-23T00:18:42;98141.94;;;10.56;76.66
21359;BME280;13506;50.852;20.632;2023-05-23T00:21:12;98136.06;;;10.41;78.12
21359;BME280;13506;50.852;20.632;2023-05-23T00:23:40;98132.38;;;10.44;77.92
21359;BME280;13506;50.852;20.632;2023-05-23T00:26:09;98137.22;;;10.26;78.18
21359;BME280;13506;50.852;20.632;2023-05-23T00:28:39;98130.94;;;10.28;79.34
21359;BME280;13506;50.852;20.632;2023-05-23T00:31:07;98130.03;;;10.41;78.05
21359;BME280;13506;50.852;20.632;2023-05-23T00:33:35;98122.81;;;10.20;79.33
21359;BME280;13506;50.852;20.632;2023-05-23T00:36:03;98123.03;;;10.17;79.78
21359;BME280;13506;50.852;20.632;2023-05-23T00:38:33;98130.84;;;10.06;80.05
21359;BME280;13506;50.852;20.632;2023-05-23T00:41:01;98118.13;;;10.01;81.07
21359;BME280;13506;50.852;20.632;2023-05-23T00:43:29;98116.13;;;10.05;81.45
21359;BME280;13506;50.852;20.632;2023-05-23T00:45:58;98121.47;;;10.03;81.60
21359;BME280;13506;50.852;20.632;2023-05-23T00:48:28;98114.75;;;9.88;81.70
21359;BME280;13506;50.852;20.632;2023-05-23T00:50:57;98114.50;;;9.91;81.83
21359;BME280;13506;50.852;20.632;2023-05-23T00:53:26;98123.47;;;10.00;81.79
21359;BME280;13506;50.852;20.632;2023-05-23T00:55:55;98119.78;;;9.78;82.11
21359;BME280;13506;50.852;20.632;2023-05-23T00:58:24;98119.16;;;9.74;83.29
21359;BME280;13506;50.852;20.632;2023-05-23T01:00:52;98123.06;;;9.69;83.03
21359;BME280;13506;50.852;20.632;2023-05-23T01:03:21;98127.03;;;9.62;84.89
21359;BME280;13506;50.852;20.632;2023-05-23T01:05:49;98124.00;;;9.68;82.89
21359;BME280;13506;50.852;20.632;2023-05-23T01:08:17;98127.13;;;9.73;83.26
21359;BME280;13506;50.852;20.632;2023-05-23T01:10:45;98118.84;;;9.79;83.03
21359;BME280;13506;50.852;20.632;2023-05-23T01:13:27;98122.38;;;9.78;83.22
21359;BME280;13506;50.852;20.632;2023-05-23T01:16:04;98120.75;;;9.77;82.76
21359;BME280;13506;50.852;20.632;2023-05-23T01:18:42;98124.38;;;9.74;83.27
21359;BME280;13506;50.852;20.632;2023-05-23T01:21:16;98127.34;;;9.70;82.23
21359;BME280;13506;50.852;20.632;2023-05-23T01:24:20;98118.56;;;9.71;83.32
21359;BME280;13506;50.852;20.632;2023-05-23T01:27:04;98119.59;;;9.68;81.73
21359;BME280;13506;50.852;20.632;2023-05-23T01:29:38;98116.97;;;9.81;81.80
21359;BME280;13506;50.852;20.632;2023-05-23T01:32:10;98118.03;;;9.42;82.84
21359;BME280;13506;50.852;20.632;2023-05-23T01:34:40;98112.53;;;9.58;83.42
21359;BME280;13506;50.852;20.632;2023-05-23T01:37:08;98115.50;;;9.53;84.41
21359;BME280;13506;50.852;20.632;2023-05-23T01:39:37;98112.72;;;9.43;83.58
21359;BME280;13506;50.852;20.632;2023-05-23T01:42:06;98113.56;;;9.44;82.91
21359;BME280;13506;50.852;20.632;2023-05-23T01:44:37;98107.81;;;9.39;83.51
21359;BME280;13506;50.852;20.632;2023-05-23T01:47:08;98111.72;;;9.33;84.98
21359;BME280;13506;50.852;20.632;2023-05-23T01:49:36;98110.03;;;9.32;86.09
21359;BME280;13506;50.852;20.632;2023-05-23T01:52:06;98115.75;;;9.37;85.91
21359;BME280;13506;50.852;20.632;2023-05-23T01:54:37;98109.25;;;9.43;84.95
21359;BME280;13506;50.852;20.632;2023-05-23T01:57:08;98106.81;;;9.16;86.40
21359;BME280;13506;50.852;20.632;2023-05-23T01:59:38;98102.22;;;9.19;87.17
21359;BME280;13506;50.852;20.632;2023-05-23T02:02:06;98103.69;;;9.23;86.20
21359;BME280;13506;50.852;20.632;2023-05-23T02:04:35;98106.31;;;9.10;87.24
21359;BME280;13506;50.852;20.632;2023-05-23T02:07:02;98096.84;;;9.09;87.13
21359;BME280;13506;50.852;20.632;2023-05-23T02:09:32;98102.50;;;9.03;87.01
21359;BME280;13506;50.852;20.632;2023-05-23T02:11:59;98096.31;;;9.04;88.35
21359;BME280;13506;50.852;20.632;2023-05-23T02:14:28;98088.00;;;8.99;87.67
21359;BME280;13506;50.852;20.632;2023-05-23T02:16:57;98099.44;;;9.09;87.51
21359;BME280;13506;50.852;20.632;2023-05-23T02:19:27;98093.94;;;9.01;87.31
21359;BME280;13506;50.852;20.632;2023-05-23T02:21:56;98090.28;;;9.04;86.22
21359;BME280;13506;50.852;20.632;2023-05-23T02:24:24;98079.31;;;8.99;86.66
21359;BME280;13506;50.852;20.632;2023-05-23T02:26:52;98086.44;;;8.84;86.72
21359;BME280;13506;50.852;20.632;2023-05-23T02:29:21;98085.81;;;8.80;87.41
21359;BME280;13506;50.852;20.632;2023-05-23T02:31:49;98077.31;;;9.02;86.99
21359;BME280;13506;50.852;20.632;2023-05-23T02:34:19;98083.53;;;8.88;86.59
21359;BME280;13506;50.852;20.632;2023-05-23T02:36:47;98082.91;;;8.85;87.13
21359;BME280;13506;50.852;20.632;2023-05-23T02:39:15;98080.28;;;8.85;86.51
21359;BME280;13506;50.852;20.632;2023-05-23T02:41:44;98079.84;;;8.91;86.09
21359;BME280;13506;50.852;20.632;2023-05-23T02:44:12;98089.50;;;8.78;86.93
21359;BME280;13506;50.852;20.632;2023-05-23T02:46:41;98083.97;;;8.69;88.51
21359;BME280;13506;50.852;20.632;2023-05-23T02:49:09;98087.59;;;8.80;88.11
21359;BME280;13506;50.852;20.632;2023-05-23T02:51:39;98082.41;;;8.80;88.18
21359;BME280;13506;50.852;20.632;2023-05-23T02:54:07;98074.44;;;8.81;87.66
21359;BME280;13506;50.852;20.632;2023-05-23T02:56:37;98071.81;;;8.81;87.67
21359;BME280;13506;50.852;20.632;2023-05-23T02:59:05;98084.75;;;8.96;86.37
21359;BME280;13506;50.852;20.632;2023-05-23T03:01:33;98085.38;;;8.99;86.98
21359;BME280;13506;50.852;20.632;2023-05-23T03:04:01;98078.88;;;9.05;85.38
21359;BME280;13506;50.852;20.632;2023-05-23T03:06:30;98080.97;;;9.00;85.02
21359;BME280;13506;50.852;20.632;2023-05-23T03:09:01;98076.69;;;9.11;84.54
21359;BME280;13506;50.852;20.632;2023-05-23T03:11:30;98076.41;;;9.03;85.84
21359;BME280;13506;50.852;20.632;2023-05-23T03:13:59;98072.75;;;8.93;85.81
21359;BME280;13506;50.852;20.632;2023-05-23T03:16:27;98070.66;;;8.98;84.72
21359;BME280;13506;50.852;20.632;2023-05-23T03:18:55;98061.59;;;8.91;85.16
21359;BME280;13506;50.852;20.632;2023-05-23T03:21:23;98060.31;;;9.09;84.49
21359;BME280;13506;50.852;20.632;2023-05-23T03:23:51;98053.00;;;9.02;84.02
21359;BME280;13506;50.852;20.632;2023-05-23T03:26:20;98056.78;;;8.98;83.76
21359;BME280;13506;50.852;20.632;2023-05-23T03:28:50;98061.13;;;9.10;83.52
21359;BME280;13506;50.852;20.632;2023-05-23T03:31:19;98065.72;;;9.06;82.26
21359;BME280;13506;50.852;20.632;2023-05-23T03:33:47;98065.16;;;9.27;82.72
21359;BME280;13506;50.852;20.632;2023-05-23T03:36:16;98060.44;;;9.32;82.23
21359;BME280;13506;50.852;20.632;2023-05-23T03:38:44;98052.66;;;9.43;81.79
21359;BME280;13506;50.852;20.632;2023-05-23T03:41:12;98056.56;;;9.38;81.94
21359;BME280;13506;50.852;20.632;2023-05-23T03:43:42;98055.09;;;9.33;82.42
21359;BME280;13506;50.852;20.632;2023-05-23T03:46:11;98054.59;;;9.52;81.33
21359;BME280;13506;50.852;20.632;2023-05-23T03:48:40;98040.81;;;9.50;80.23
21359;BME280;13506;50.852;20.632;2023-05-23T03:51:08;98055.88;;;9.71;79.29
21359;BME280;13506;50.852;20.632;2023-05-23T03:53:37;98050.31;;;9.76;79.31
21359;BME280;13506;50.852;20.632;2023-05-23T03:56:05;98040.06;;;9.97;78.89
21359;BME280;13506;50.852;20.632;2023-05-23T03:58:33;98037.22;;;10.00;77.68
21359;BME280;13506;50.852;20.632;2023-05-23T04:01:09;98035.81;;;10.07;77.51
21359;BME280;13506;50.852;20.632;2023-05-23T04:03:37;98028.59;;;10.22;76.22
21359;BME280;13506;50.852;20.632;2023-05-23T04:06:05;98036.78;;;10.17;75.40
21359;BME280;13506;50.852;20.632;2023-05-23T04:08:36;98034.41;;;10.25;75.06
21359;BME280;13506;50.852;20.632;2023-05-23T04:11:08;98028.75;;;10.43;75.08
21359;BME280;13506;50.852;20.632;2023-05-23T04:13:38;98030.28;;;10.68;75.27
21359;BME280;13506;50.852;20.632;2023-05-23T04:16:07;98026.59;;;10.82;74.31
21359;BME280;13506;50.852;20.632;2023-05-23T04:18:36;98030.38;;;11.00;74.66
21359;BME280;13506;50.852;20.632;2023-05-23T04:21:05;98032.50;;;11.18;73.55
21359;BME280;13506;50.852;20.632;2023-05-23T04:23:38;98039.66;;;11.15;72.65
21359;BME280;13506;50.852;20.632;2023-05-23T04:26:06;98033.56;;;11.26;72.10
21359;BME280;13506;50.852;20.632;2023-05-23T04:28:40;98035.06;;;11.40;72.25
21359;BME280;13506;50.852;20.632;2023-05-23T04:31:13;98032.19;;;11.43;72.36
21359;BME280;13506;50.852;20.632;2023-05-23T04:33:42;98034.69;;;11.45;72.10
21359;BME280;13506;50.852;20.632;2023-05-23T04:36:11;98022.16;;;11.48;70.42
21359;BME280;13506;50.852;20.632;2023-05-23T04:38:43;98024.00;;;11.69;70.69
21359;BME280;13506;50.852;20.632;2023-05-23T04:41:11;98020.63;;;11.46;70.71
21359;BME280;13506;50.852;20.632;2023-05-23T04:44:07;98020.06;;;11.63;69.85
21359;BME280;13506;50.852;20.632;2023-05-23T04:46:41;98016.50;;;11.64;70.81
21359;BME280;13506;50.852;20.632;2023-05-23T04:49:22;98020.09;;;11.84;70.22
21359;BME280;13506;50.852;20.632;2023-05-23T04:51:51;98022.03;;;12.03;70.53
21359;BME280;13506;50.852;20.632;2023-05-23T04:54:24;98026.06;;;12.28;69.29
21359;BME280;13506;50.852;20.632;2023-05-23T04:56:53;98018.28;;;12.48;68.26
21359;BME280;13506;50.852;20.632;2023-05-23T04:59:23;98025.22;;;12.49;66.64
21359;BME280;13506;50.852;20.632;2023-05-23T05:01:52;98022.25;;;12.63;65.09
21359;BME280;13506;50.852;20.632;2023-05-23T05:04:21;98026.97;;;12.79;66.00
21359;BME280;13506;50.852;20.632;2023-05-23T05:06:50;98021.16;;;12.75;64.82
21359;BME280;13506;50.852;20.632;2023-05-23T05:09:19;98021.44;;;12.72;64.53
21359;BME280;13506;50.852;20.632;2023-05-23T05:11:48;98015.16;;;13.04;64.71
21359;BME280;13506;50.852;20.632;2023-05-23T05:14:17;98011.44;;;13.07;63.43
21359;BME280;13506;50.852;20.632;2023-05-23T05:16:45;98026.25;;;13.17;64.13
21359;BME280;13506;50.852;20.632;2023-05-23T05:19:17;98015.81;;;13.47;63.30
21359;BME280;13506;50.852;20.632;2023-05-23T05:21:46;98018.19;;;13.50;62.44
21359;BME280;13506;50.852;20.632;2023-05-23T05:24:14;98014.28;;;13.64;62.68
21359;BME280;13506;50.852;20.632;2023-05-23T05:26:42;98012.88;;;13.79;62.21
21359;BME280;13506;50.852;20.632;2023-05-23T05:29:10;98011.78;;;14.01;60.99
21359;BME280;13506;50.852;20.632;2023-05-23T05:31:38;98013.00;;;14.07;60.53
21359;BME280;13506;50.852;20.632;2023-05-23T05:34:07;98009.88;;;14.40;60.38
21359;BME280;13506;50.852;20.632;2023-05-23T05:36:36;98011.56;;;14.42;60.02
21359;BME280;13506;50.852;20.632;2023-05-23T05:39:05;98011.63;;;14.59;59.36
21359;BME280;13506;50.852;20.632;2023-05-23T05:41:33;98015.78;;;14.62;57.33
21359;BME280;13506;50.852;20.632;2023-05-23T05:44:01;98023.94;;;14.59;58.25
21359;BME280;13506;50.852;20.632;2023-05-23T05:46:29;98014.34;;;14.95;58.28
21359;BME280;13506;50.852;20.632;2023-05-23T05:48:58;98007.31;;;14.96;56.96
21359;BME280;13506;50.852;20.632;2023-05-23T05:51:26;98006.78;;;15.10;57.00
21359;BME280;13506;50.852;20.632;2023-05-23T05:53:56;98006.03;;;15.18;55.75
21359;BME280;13506;50.852;20.632;2023-05-23T05:56:24;98011.44;;;15.44;56.63
21359;BME280;13506;50.852;20.632;2023-05-23T05:58:53;98001.03;;;15.60;56.56
21359;BME280;13506;50.852;20.632;2023-05-23T06:01:22;97995.59;;;15.80;56.17
21359;BME280;13506;50.852;20.632;2023-05-23T06:03:51;97998.75;;;16.01;55.02
21359;BME280;13506;50.852;20.632;2023-05-23T06:06:19;97994.34;;;16.36;55.29
21359;BME280;13506;50.852;20.632;2023-05-23T06:08:48;97998.38;;;16.49;53.56
21359;BME280;13506;50.852;20.632;2023-05-23T06:11:18;98004.06;;;16.62;53.35
21359;BME280;13506;50.852;20.632;2023-05-23T06:13:46;97993.41;;;16.88;53.94
21359;BME280;13506;50.852;20.632;2023-05-23T06:16:14;97991.31;;;17.00;51.82
21359;BME280;13506;50.852;20.632;2023-05-23T06:18:44;97994.47;;;17.03;51.60
21359;BME280;13506;50.852;20.632;2023-05-23T06:21:12;97995.03;;;17.23;51.43
21359;BME280;13506;50.852;20.632;2023-05-23T06:23:41;97991.25;;;17.42;50.29
21359;BME280;13506;50.852;20.632;2023-05-23T06:26:09;97986.13;;;17.41;49.75
21359;BME280;13506;50.852;20.632;2023-05-23T06:28:39;97992.94;;;17.84;50.61
21359;BME280;13506;50.852;20.632;2023-05-23T06:31:07;97996.44;;;17.93;49.71
21359;BME280;13506;50.852;20.632;2023-05-23T06:33:36;97994.59;;;18.02;49.47
21359;BME280;13506;50.852;20.632;2023-05-23T06:36:05;97992.97;;;17.93;47.65
21359;BME280;13506;50.852;20.632;2023-05-23T06:38:33;97994.72;;;18.25;47.66
21359;BME280;13506;50.852;20.632;2023-05-23T06:41:00;97985.94;;;18.41;47.95
21359;BME280;13506;50.852;20.632;2023-05-23T06:43:30;97984.19;;;18.73;48.54
21359;BME280;13506;50.852;20.632;2023-05-23T06:46:20;97970.91;;;18.81;45.59
21359;BME280;13506;50.852;20.632;2023-05-23T06:48:49;97981.94;;;18.93;46.17
21359;BME280;13506;50.852;20.632;2023-05-23T06:51:18;97973.00;;;18.94;46.28
21359;BME280;13506;50.852;20.632;2023-05-23T06:53:46;97979.19;;;18.14;43.73
21359;BME280;13506;50.852;20.632;2023-05-23T06:56:14;97981.03;;;17.89;42.33
21359;BME280;13506;50.852;20.632;2023-05-23T06:58:54;97965.94;;;18.30;43.59
21359;BME280;13506;50.852;20.632;2023-05-23T07:01:23;97965.22;;;18.36;42.52
21359;BME280;13506;50.852;20.632;2023-05-23T07:03:52;97974.25;;;18.02;41.71
21359;BME280;13506;50.852;20.632;2023-05-23T07:06:20;97962.44;;;18.21;41.74
21359;BME280;13506;50.852;20.632;2023-05-23T07:08:48;97964.44;;;18.28;41.82
21359;BME280;13506;50.852;20.632;2023-05-23T07:11:17;97963.91;;;18.32;39.30
21359;BME280;13506;50.852;20.632;2023-05-23T07:13:51;97953.88;;;18.67;43.59
21359;BME280;13506;50.852;20.632;2023-05-23T07:16:35;97953.66;;;18.37;40.24
21359;BME280;13506;50.852;20.632;2023-05-23T07:19:06;97954.84;;;18.66;43.11
21359;BME280;13506;50.852;20.632;2023-05-23T07:21:42;97956.00;;;18.72;40.84
21359;BME280;13506;50.852;20.632;2023-05-23T07:24:11;97960.59;;;18.38;38.88
21359;BME280;13506;50.852;20.632;2023-05-23T07:26:39;97960.81;;;18.68;39.70
21359;BME280;13506;50.852;20.632;2023-05-23T07:29:07;97952.25;;;18.58;39.67
21359;BME280;13506;50.852;20.632;2023-05-23T07:31:37;97948.31;;;18.54;38.70
21359;BME280;13506;50.852;20.632;2023-05-23T07:34:05;97952.00;;;18.84;39.61
21359;BME280;13506;50.852;20.632;2023-05-23T07:36:45;97953.56;;;19.24;40.08
21359;BME280;13506;50.852;20.632;2023-05-23T07:39:16;97954.00;;;19.36;37.83
21359;BME280;13506;50.852;20.632;2023-05-23T07:41:48;97954.31;;;19.10;37.49
21359;BME280;13506;50.852;20.632;2023-05-23T07:44:18;97964.47;;;18.67;37.20
21359;BME280;13506;50.852;20.632;2023-05-23T07:46:48;97951.81;;;18.85;37.48
21359;BME280;13506;50.852;20.632;2023-05-23T07:49:16;97954.50;;;18.77;37.39
21359;BME280;13506;50.852;20.632;2023-05-23T07:51:44;97946.97;;;19.20;38.75
21359;BME280;13506;50.852;20.632;2023-05-23T07:54:13;97937.47;;;19.03;36.65
21359;BME280;13506;50.852;20.632;2023-05-23T07:56:42;97942.81;;;18.95;36.33
21359;BME280;13506;50.852;20.632;2023-05-23T07:59:11;97947.44;;;19.01;36.87
21359;BME280;13506;50.852;20.632;2023-05-23T08:01:40;97935.56;;;18.89;36.71
21359;BME280;13506;50.852;20.632;2023-05-23T08:04:15;97938.47;;;18.71;37.04
21359;BME280;13506;50.852;20.632;2023-05-23T08:06:48;97945.47;;;18.95;37.18
21359;BME280;13506;50.852;20.632;2023-05-23T08:09:16;97933.88;;;19.19;36.31
21359;BME280;13506;50.852;20.632;2023-05-23T08:11:50;97931.66;;;19.54;36.64
21359;BME280;13506;50.852;20.632;2023-05-23T08:14:20;97923.97;;;19.36;36.11
21359;BME280;13506;50.852;20.632;2023-05-23T08:17:01;97943.78;;;19.25;37.08
21359;BME280;13506;50.852;20.632;2023-05-23T08:19:32;97931.50;;;19.55;37.55
21359;BME280;13506;50.852;20.632;2023-05-23T08:22:00;97935.00;;;19.47;35.64
21359;BME280;13506;50.852;20.632;2023-05-23T08:24:29;97948.44;;;19.46;35.11
21359;BME280;13506;50.852;20.632;2023-05-23T08:26:56;97947.03;;;19.35;35.86
21359;BME280;13506;50.852;20.632;2023-05-23T08:29:25;97929.47;;;19.34;36.27
21359;BME280;13506;50.852;20.632;2023-05-23T08:31:53;97920.88;;;19.55;36.17
21359;BME280;13506;50.852;20.632;2023-05-23T08:34:22;97920.72;;;19.72;35.61
21359;BME280;13506;50.852;20.632;2023-05-23T08:36:51;97931.28;;;19.95;34.64
21359;BME280;13506;50.852;20.632;2023-05-23T08:39:21;97924.72;;;19.67;35.58
21359;BME280;13506;50.852;20.632;2023-05-23T08:41:56;97930.91;;;19.83;35.62
21359;BME280;13506;50.852;20.632;2023-05-23T08:44:24;97929.88;;;19.84;36.45
21359;BME280;13506;50.852;20.632;2023-05-23T08:47:02;97920.38;;;19.75;36.46
21359;BME280;13506;50.852;20.632;2023-05-23T08:49:46;97927.22;;;19.69;35.19
21359;BME280;13506;50.852;20.632;2023-05-23T08:52:18;97909.56;;;19.61;35.28
21359;BME280;13506;50.852;20.632;2023-05-23T08:54:51;97919.72;;;19.73;34.91
21359;BME280;13506;50.852;20.632;2023-05-23T08:57:19;97923.81;;;19.60;34.25
21359;BME280;13506;50.852;20.632;2023-05-23T08:59:53;97949.84;;;19.80;34.87
21359;BME280;13506;50.852;20.632;2023-05-23T09:02:24;97918.56;;;19.90;35.11
21359;BME280;13506;50.852;20.632;2023-05-23T09:05:00;97920.00;;;19.93;35.31
21359;BME280;13506;50.852;20.632;2023-05-23T09:07:29;97928.13;;;19.61;35.75
21359;BME280;13506;50.852;20.632;2023-05-23T09:09:58;97923.16;;;19.58;34.98
21359;BME280;13506;50.852;20.632;2023-05-23T09:12:26;97916.91;;;19.89;36.75
21359;BME280;13506;50.852;20.632;2023-05-23T09:14:55;97906.31;;;20.34;35.48
21359;BME280;13506;50.852;20.632;2023-05-23T09:17:25;97933.97;;;20.39;34.98
21359;BME280;13506;50.852;20.632;2023-05-23T09:19:53;97925.09;;;20.47;35.03
21359;BME280;13506;50.852;20.632;2023-05-23T09:22:33;97913.97;;;20.58;33.27
21359;BME280;13506;50.852;20.632;2023-05-23T09:25:07;97933.97;;;20.39;33.28
21359;BME280;13506;50.852;20.632;2023-05-23T09:27:37;97918.16;;;20.82;34.65
21359;BME280;13506;50.852;20.632;2023-05-23T09:30:06;97914.44;;;20.62;33.49
21359;BME280;13506;50.852;20.632;2023-05-23T09:32:35;97922.78;;;20.29;33.34
21359;BME280;13506;50.852;20.632;2023-05-23T09:35:06;97921.06;;;20.36;34.03
21359;BME280;13506;50.852;20.632;2023-05-23T09:37:42;97916.19;;;20.55;34.80
21359;BME280;13506;50.852;20.632;2023-05-23T09:40:13;97917.47;;;20.59;33.63
21359;BME280;13506;50.852;20.632;2023-05-23T09:42:50;97916.13;;;20.84;34.07
21359;BME280;13506;50.852;20.632;2023-05-23T09:45:19;97913.41;;;20.63;33.26
21359;BME280;13506;50.852;20.632;2023-05-23T09:47:49;97912.25;;;21.02;34.59
21359;BME280;13506;50.852;20.632;2023-05-23T09:50:18;97923.34;;;20.39;31.89
21359;BME280;13506;50.852;20.632;2023-05-23T09:52:48;97909.69;;;20.94;33.74
21359;BME280;13506;50.852;20.632;2023-05-23T09:55:17;97907.47;;;20.97;32.90
21359;BME280;13506;50.852;20.632;2023-05-23T09:57:45;97905.00;;;20.96;33.07
21359;BME280;13506;50.852;20.632;2023-05-23T10:00:18;97903.34;;;20.95;32.94
21359;BME280;13506;50.852;20.632;2023-05-23T10:02:56;97898.38;;;21.06;33.05
21359;BME280;13506;50.852;20.632;2023-05-23T10:05:37;97923.38;;;20.91;33.27
21359;BME280;13506;50.852;20.632;2023-05-23T10:08:09;97909.34;;;21.18;32.81
21359;BME280;13506;50.852;20.632;2023-05-23T10:13:49;97908.16;;;20.84;33.04
21359;BME280;13506;50.852;20.632;2023-05-23T10:16:22;97905.84;;;20.81;32.93
21359;BME280;13506;50.852;20.632;2023-05-23T10:18:57;97898.78;;;20.88;32.57
21359;BME280;13506;50.852;20.632;2023-05-23T10:21:29;97891.53;;;20.97;32.91
21359;BME280;13506;50.852;20.632;2023-05-23T10:24:03;97891.22;;;21.28;33.19
21359;BME280;13506;50.852;20.632;2023-05-23T10:26:32;97890.50;;;20.98;33.21
21359;BME280;13506;50.852;20.632;2023-05-23T10:29:00;97893.47;;;21.03;32.85
21359;BME280;13506;50.852;20.632;2023-05-23T10:31:29;97885.00;;;21.21;32.71
21359;BME280;13506;50.852;20.632;2023-05-23T10:34:05;97879.34;;;21.53;33.44
21359;BME280;13506;50.852;20.632;2023-05-23T10:36:42;97886.31;;;21.75;33.35
21359;BME280;13506;50.852;20.632;2023-05-23T10:39:18;97890.69;;;21.61;33.21
21359;BME280;13506;50.852;20.632;2023-05-23T10:41:52;97874.25;;;21.58;33.95
21359;BME280;13506;50.852;20.632;2023-05-23T10:44:25;97879.25;;;21.67;34.09
21359;BME280;13506;50.852;20.632;2023-05-23T10:46:56;97876.53;;;21.11;33.67
21359;BME280;13506;50.852;20.632;2023-05-23T10:49:40;97870.34;;;21.75;33.55
21359;BME280;13506;50.852;20.632;2023-05-23T10:52:10;97871.56;;;22.07;33.10
21359;BME280;13506;50.852;20.632;2023-05-23T10:54:43;97866.13;;;22.29;34.18
21359;BME280;13506;50.852;20.632;2023-05-23T10:57:16;97865.97;;;22.02;34.17
21359;BME280;13506;50.852;20.632;2023-05-23T10:59:45;97863.28;;;21.67;33.07
21359;BME280;13506;50.852;20.632;2023-05-23T11:02:15;97859.06;;;21.73;34.98
21359;BME280;13506;50.852;20.632;2023-05-23T11:04:43;97855.41;;;21.81;34.54
21359;BME280;13506;50.852;20.632;2023-05-23T11:07:38;97854.16;;;22.12;34.27
21359;BME280;13506;50.852;20.632;2023-05-23T11:10:12;97850.19;;;22.42;33.83
21359;BME280;13506;50.852;20.632;2023-05-23T11:12:42;97842.97;;;22.36;34.42
21359;BME280;13506;50.852;20.632;2023-05-23T11:15:19;97843.63;;;22.45;34.76
21359;BME280;13506;50.852;20.632;2023-05-23T11:17:52;97840.97;;;22.45;35.50
21359;BME280;13506;50.852;20.632;2023-05-23T11:20:23;97839.56;;;22.01;34.66
21359;BME280;13506;50.852;20.632;2023-05-23T11:22:54;97842.88;;;21.75;34.22
21359;BME280;13506;50.852;20.632;2023-05-23T11:25:42;97838.69;;;21.65;36.32
21359;BME280;13506;50.852;20.632;2023-05-23T11:28:11;97842.72;;;21.05;35.81
21359;BME280;13506;50.852;20.632;2023-05-23T11:30:40;97841.53;;;20.71;36.11
21359;BME280;13506;50.852;20.632;2023-05-23T11:33:09;97842.84;;;21.18;36.06
21359;BME280;13506;50.852;20.632;2023-05-23T11:35:40;97844.59;;;21.61;35.81
21359;BME280;13506;50.852;20.632;2023-05-23T11:38:08;97834.50;;;22.26;35.69
21359;BME280;13506;50.852;20.632;2023-05-23T11:40:38;97837.75;;;22.63;35.71
21359;BME280;13506;50.852;20.632;2023-05-23T11:43:09;97834.69;;;22.66;34.87
21359;BME280;13506;50.852;20.632;2023-05-23T11:45:38;97829.84;;;22.96;35.11
21359;BME280;13506;50.852;20.632;2023-05-23T11:48:07;97833.69;;;22.94;34.96
21359;BME280;13506;50.852;20.632;2023-05-23T11:50:44;97830.97;;;22.54;33.91
21359;BME280;13506;50.852;20.632;2023-05-23T11:53:13;97837.69;;;22.43;34.47
21359;BME280;13506;50.852;20.632;2023-05-23T11:55:50;97826.44;;;22.47;34.64
21359;BME280;13506;50.852;20.632;2023-05-23T11:58:25;97820.78;;;22.97;34.22
21359;BME280;13506;50.852;20.632;2023-05-23T12:00:59;97819.63;;;23.13;33.48
21359;BME280;13506;50.852;20.632;2023-05-23T12:03:27;97813.00;;;23.42;34.62
21359;BME280;13506;50.852;20.632;2023-05-23T12:05:55;97806.63;;;23.03;34.09
21359;BME280;13506;50.852;20.632;2023-05-23T12:08:23;97813.66;;;23.18;34.33
21359;BME280;13506;50.852;20.632;2023-05-23T12:10:53;97805.22;;;23.41;33.98
21359;BME280;13506;50.852;20.632;2023-05-23T12:13:27;97806.88;;;23.22;34.79
21359;BME280;13506;50.852;20.632;2023-05-23T12:15:55;97798.81;;;23.62;33.80
21359;BME280;13506;50.852;20.632;2023-05-23T12:18:28;97793.13;;;24.10;34.72
21359;BME280;13506;50.852;20.632;2023-05-23T12:20:59;97787.69;;;23.78;31.72
21359;BME280;13506;50.852;20.632;2023-05-23T12:23:29;97794.16;;;23.17;32.16
21359;BME280;13506;50.852;20.632;2023-05-23T12:25:58;97788.78;;;23.04;32.16
21359;BME280;13506;50.852;20.632;2023-05-23T12:28:36;97782.22;;;23.53;33.52
21359;BME280;13506;50.852;20.632;2023-05-23T12:31:11;97793.69;;;23.60;32.99
21359;BME280;13506;50.852;20.632;2023-05-23T12:33:40;97788.31;;;23.67;33.25
21359;BME280;13506;50.852;20.632;2023-05-23T12:36:09;97783.31;;;23.97;32.83
21359;BME280;13506;50.852;20.632;2023-05-23T12:38:37;97784.13;;;24.04;32.15
21359;BME280;13506;50.852;20.632;2023-05-23T12:41:10;97783.03;;;23.47;32.97
21359;BME280;13506;50.852;20.632;2023-05-23T12:43:47;97772.94;;;23.62;32.71
21359;BME280;13506;50.852;20.632;2023-05-23T12:46:16;97773.81;;;23.23;32.24
21359;BME280;13506;50.852;20.632;2023-05-23T12:48:44;97758.75;;;23.68;33.26
21359;BME280;13506;50.852;20.632;2023-05-23T12:51:12;97761.63;;;23.67;34.02
21359;BME280;13506;50.852;20.632;2023-05-23T12:53:41;97764.84;;;23.96;32.71
21359;BME280;13506;50.852;20.632;2023-05-23T12:56:09;97763.06;;;23.83;33.67
21359;BME280;13506;50.852;20.632;2023-05-23T12:58:37;97764.69;;;23.70;33.01
21359;BME280;13506;50.852;20.632;2023-05-23T13:01:06;97759.63;;;23.49;32.75
21359;BME280;13506;50.852;20.632;2023-05-23T13:03:35;97763.34;;;23.15;31.93
21359;BME280;13506;50.852;20.632;2023-05-23T13:06:03;97762.06;;;22.64;32.90
21359;BME280;13506;50.852;20.632;2023-05-23T13:08:32;97761.69;;;23.00;33.61
21359;BME280;13506;50.852;20.632;2023-05-23T13:11:00;97755.53;;;22.80;32.22
21359;BME280;13506;50.852;20.632;2023-05-23T13:13:28;97753.88;;;22.65;33.20